CSUN New Campus Station -PST Time - Most Recent Data on bottom of page




           Date/Time      Avg      Avg      Max     Wind      Avg      Max      Min      Avg      Avg    Total      Avg     Batt
                         Wind     Wind     Wind      Dir     Temp     Temp     Temp       RH      Bar     Rain    Solar     Volt
                      Spd MPH      Dir  Spd MPH   at Max    Deg_F    Deg_F    Deg_F        % Press_mb   Inches     W/m2      Min
--------------------------------------------------------------------------------------------------------------------------------
    09/01/2015 00:00      2.8      140      5.3      128     68.0     68.2     67.7       77     1012     0.00        0     13.3
    09/01/2015 00:15      2.9      148      5.7      156     67.7     68.0     67.3       77     1012     0.00        0     13.3
    09/01/2015 00:30      2.3      150      5.0      170     67.4     67.6     67.1       77     1012     0.00        0     13.3
    09/01/2015 00:45      2.4      158      5.7      172     67.0     67.3     66.8       77     1012     0.00        0     13.3
    09/01/2015 01:00      1.4      144      3.5      152     67.3     67.5     67.0       76     1012     0.00        0     13.3
    09/01/2015 01:15      1.3      148      3.2      148     67.5     67.8     67.2       75     1012     0.00        0     13.3
    09/01/2015 01:30      1.6      156      3.1      154     67.8     68.1     67.5       75     1012     0.00        0     13.3
    09/01/2015 01:45      1.5      130      4.5       82     68.0     68.2     67.7       74     1012     0.00        0     13.3
    09/01/2015 02:00      0.8      138      2.3      188     68.1     68.4     67.8       73     1011     0.00        0     13.3
    09/01/2015 02:15      0.5      189      1.8      159     67.8     68.3     67.3       75     1011     0.00        0     13.3
    09/01/2015 02:30      1.5      154      3.1      153     67.5     67.8     67.2       74     1011     0.00        0     13.3
    09/01/2015 02:45      1.3      198      2.7      194     67.5     67.9     67.3       74     1011     0.00        0     13.3
    09/01/2015 03:00      0.7      202      1.7      195     67.6     67.8     67.4       73     1011     0.00        0     13.3
    09/01/2015 03:15      1.0      152      3.6      153     67.9     68.3     67.6       70     1012     0.00        0     13.3
    09/01/2015 03:30      2.7      155      6.4      155     68.3     68.6     67.8       74     1012     0.00        0     13.3
    09/01/2015 03:45      2.6      140      4.7      137     67.8     68.1     67.6       76     1012     0.00        0     13.3
    09/01/2015 04:00      2.0      131      4.5      140     67.5     67.9     67.2       76     1012     0.00        0     13.3
    09/01/2015 04:15      2.8      158      4.7      145     67.1     67.4     66.7       76     1012     0.00        0     13.3
    09/01/2015 04:30      1.9      143      3.5      161     66.9     67.0     66.7       75     1011     0.00        0     13.3
    09/01/2015 04:45      1.6      131      4.0      145     66.8     67.1     66.6       75     1011     0.00        0     13.3
    09/01/2015 05:00      1.6      153      2.6      121     66.8     67.0     66.5       76     1011     0.00        0     13.3
    09/01/2015 05:15      1.0      151      2.8      150     66.9     67.1     66.6       75     1012     0.00        0     13.3
    09/01/2015 05:30      1.6      148      3.0      144     67.0     67.3     66.8       74     1012     0.00        2     13.3
    09/01/2015 05:45      2.3      164      5.1      162     67.2     67.4     67.0       73     1012     0.00        7     13.3
    09/01/2015 06:00      2.5      163      4.5      167     67.4     67.6     67.2       72     1012     0.00       18     13.3
    09/01/2015 06:15      2.1      138      4.0      111     67.6     67.8     67.3       72     1012     0.00       20     13.3
    09/01/2015 06:30      2.1      137      4.3      128     67.6     67.8     67.4       71     1012     0.00       27     13.3
    09/01/2015 06:45      2.9      149      5.4      137     67.8     68.2     67.5       70     1012     0.00       48     13.3
    09/01/2015 07:00      4.2      158      6.8      154     68.2     68.5     67.9       70     1013     0.00       62     13.3
    09/01/2015 07:15      3.5      172      5.9      172     68.1     68.5     67.9       69     1013     0.00       85     13.3
    09/01/2015 07:30      1.9      126      5.4      104     69.0     69.5     68.3       65     1012     0.00      121     13.3
    09/01/2015 07:45      1.3      130      3.6      128     69.3     70.0     68.9       64     1012     0.00      150     13.3
    09/01/2015 08:00      2.1      142      5.3      156     70.2     70.6     69.8       63     1012     0.00      181     13.2
    09/01/2015 08:15      1.8      115      5.1       72     70.3     70.7     69.9       61     1013     0.00      211     13.2
    09/01/2015 08:30      2.6      108      6.3      158     70.7     71.3     70.1       61     1013     0.00      265     13.2
    09/01/2015 08:45      2.5      115      6.8      157     70.9     71.3     70.5       59     1013     0.00      300     13.2
    09/01/2015 09:00      2.3       85      5.6      148     71.6     71.9     71.3       57     1013     0.00      368     13.2
    09/01/2015 09:15      2.9      133      9.2      155     73.0     73.8     71.7       55     1013     0.00      496     13.2
    09/01/2015 09:30      2.6      130      6.6       83     73.4     74.2     72.6       53     1013     0.00      657     13.2
    09/01/2015 09:45      3.0      166      7.8      181     74.6     75.1     74.1       53     1013     0.00      686     13.1
    09/01/2015 10:00      3.0      159      9.1      140     74.7     75.5     74.3       53     1013     0.00      700     13.1
    09/01/2015 10:15      3.5      157      8.8      160     76.2     76.8     75.5       50     1013     0.00      754     13.1
    09/01/2015 10:30      2.6      227      8.0      116     75.7     76.8     75.1       49     1013     0.00      739     13.1
    09/01/2015 10:45      3.9      153      9.2      118     76.6     77.4     75.7       47     1013     0.00      756     13.1
    09/01/2015 11:00      3.8      156      8.4      171     77.1     77.6     76.3       47     1012     0.00      834     13.1
    09/01/2015 11:15      2.4      121      6.5      165     78.3     78.9     77.0       44     1012     0.00      833     13.1
    09/01/2015 11:30      3.8      145     11.1      179     79.1     79.7     78.3       41     1012     0.00      842     13.1
    09/01/2015 11:45      3.2      168      7.0      159     79.8     80.8     79.2       40     1012     0.00      829     13.1
    09/01/2015 12:00      4.0      138      9.7      168     80.0     80.6     79.3       41     1012     0.00      805     13.1
    09/01/2015 12:15      4.0      132      8.3      126     80.3     81.2     79.4       41     1011     0.00      776     13.1
    09/01/2015 12:30      3.8      143      9.8      173     81.7     82.8     80.6       38     1011     0.00      888     13.0
    09/01/2015 12:45      3.4      162      8.4      183     82.3     83.1     81.0       36     1011     0.00      892     13.0
    09/01/2015 13:00      4.0      155     11.4      139     83.0     83.6     82.0       33     1011     0.00      863     13.0
    09/01/2015 13:15      4.2      159     10.3      175     83.6     84.6     82.4       33     1011     0.00      710     13.0
    09/01/2015 13:30      4.9      165     10.7      132     83.5     84.2     82.7       33     1011     0.00      613     13.0
    09/01/2015 13:45      5.0      154     12.2      162     83.6     84.3     82.8       32     1011     0.00      420     13.0
    09/01/2015 14:00      4.4      146     10.6      149     83.2     83.6     82.5       35     1011     0.00      590     13.0
    09/01/2015 14:15      4.3      147      9.6      173     84.1     84.9     82.8       36     1010     0.00      599     13.0
    09/01/2015 14:30      4.3      135      8.1      163     83.2     83.9     82.6       34     1010     0.00      413     13.0
    09/01/2015 14:45      5.1      143     10.2      163     83.0     83.6     82.3       34     1010     0.00      553     13.0
    09/01/2015 15:00      3.6      128      7.4      129     82.8     83.2     82.3       36     1010     0.00      372     13.0
    09/01/2015 15:15      4.5      116      8.6       80     82.4     82.8     82.0       37     1010     0.00      612     13.0
    09/01/2015 15:30      3.9      120      9.5       85     82.0     82.8     81.4       38     1010     0.00      378     13.0
    09/01/2015 15:45      5.1      129      9.3      147     82.0     82.7     81.5       39     1010     0.00      439     13.0
    09/01/2015 16:00      3.8      119      7.1      123     80.9     81.7     80.3       41     1010     0.00      200     13.0
    09/01/2015 16:15      5.1      137      9.9      133     79.9     80.5     79.3       44     1010     0.00      153     13.1
    09/01/2015 16:30      4.8      129      9.7      143     79.1     79.7     78.1       46     1010     0.00      131     13.1
    09/01/2015 16:45      3.8      115     10.5       88     77.7     78.2     77.2       48     1010     0.00      108     13.1
    09/01/2015 17:00      3.6      120      8.8       88     76.6     77.2     76.0       52     1011     0.00       77     13.1
    09/01/2015 17:15      4.3      138      8.5      145     75.6     76.3     74.8       53     1011     0.00       61     13.2
    09/01/2015 17:30      4.1      126      9.2      148     74.7     74.9     74.4       51     1011     0.00       42     13.2
    09/01/2015 17:45      2.5      124      5.6      129     74.6     74.8     74.3       53     1011     0.00       23     13.2
    09/01/2015 18:00      2.7       98      5.7       85     74.1     74.7     73.6       54     1011     0.00       11     13.2
    09/01/2015 18:15      2.4      109      5.2      124     73.6     73.8     73.4       56     1011     0.00        4     13.2
    09/01/2015 18:30      2.8      101      7.7       83     73.3     73.7     72.8       58     1011     0.00        1     13.2
    09/01/2015 18:45      4.0       90      7.1       89     72.3     72.8     72.0       60     1011     0.00        0     13.2
    09/01/2015 19:00      2.9       86      5.2       94     71.8     72.3     71.5       62     1011     0.00        0     13.2
    09/01/2015 19:15      2.7       92      6.4       94     71.3     71.7     71.0       63     1012     0.00        0     13.2
    09/01/2015 19:30      3.8       96      7.3      105     70.9     71.2     70.6       64     1012     0.00        0     13.3
    09/01/2015 19:45      3.3       99      7.5      110     70.3     70.8     69.8       67     1012     0.00        0     13.3
    09/01/2015 20:00      2.8       91      5.7       78     69.7     70.0     69.3       69     1013     0.00        0     13.3
    09/01/2015 20:15      2.4      104      5.9       85     69.2     69.5     68.7       71     1013     0.00        0     13.3
    09/01/2015 20:30      1.9      108      4.9       89     68.6     69.0     68.4       72     1013     0.00        0     13.3
    09/01/2015 20:45      2.3       96      4.6      105     68.5     68.7     68.3       73     1013     0.00        0     13.3
    09/01/2015 21:00      2.1       88      5.7       65     68.3     68.6     68.0       74     1013     0.00        0     13.3
    09/01/2015 21:15      2.3       75      4.6       82     68.0     68.3     67.8       75     1013     0.00        0     13.3
    09/01/2015 21:30      2.7       77      5.2       75     68.0     68.2     67.8       75     1013     0.00        0     13.3
    09/01/2015 21:45      2.3       82      4.5      105     67.9     68.1     67.6       75     1013     0.00        0     13.3
    09/01/2015 22:00      2.6       82      5.3       88     67.7     68.0     67.5       75     1013     0.00        0     13.3
    09/01/2015 22:15      2.7       70      5.4       96     67.6     67.8     67.3       75     1013     0.00        0     13.3
    09/01/2015 22:30      2.2      111      5.7       93     67.4     67.7     67.0       76     1013     0.00        0     13.3
    09/01/2015 22:45      1.7      103      4.1      104     67.3     67.5     67.0       76     1013     0.00        0     13.3
    09/01/2015 23:00      2.3      124      5.0       97     67.4     67.6     67.2       76     1013     0.00        0     13.3
    09/01/2015 23:15      2.3      131      6.1      122     67.3     67.6     67.0       77     1013     0.00        0     13.3
    09/01/2015 23:30      2.1      127      4.6      129     67.0     67.3     66.7       76     1013     0.00        0     13.3
    09/01/2015 23:45      2.7      149      5.4      173     66.9     67.1     66.7       77     1014     0.00        0     13.3
    09/02/2015 00:00      2.9      160      5.2      158     67.0     67.2     66.7       77     1014     0.00        0     13.3
    09/02/2015 00:15      2.5      157      5.1      169     67.0     67.2     66.7       77     1013     0.00        0     13.3
    09/02/2015 00:30      2.1      153      4.5      142     66.9     67.1     66.6       77     1013     0.00        0     13.3
    09/02/2015 00:45      1.8      134      4.6      135     66.8     67.1     66.6       76     1013     0.00        0     13.3
    09/02/2015 01:00      1.4      155      2.6      191     66.8     67.1     66.5       76     1013     0.00        0     13.3
    09/02/2015 01:15      2.2      154      4.4      165     66.6     66.8     66.4       76     1013     0.00        0     13.3
    09/02/2015 01:30      2.7      160      4.3      161     66.6     66.8     66.4       76     1013     0.00        0     13.3
    09/02/2015 01:45      2.5      151      4.2      154     66.4     66.6     66.2       77     1013     0.00        0     13.3
    09/02/2015 02:00      1.5      141      2.9      128     66.3     66.5     66.1       77     1013     0.00        0     13.3
    09/02/2015 02:15      1.4      150      2.5      163     66.2     66.5     66.0       77     1013     0.00        0     13.3
    09/02/2015 02:30      1.4      161      2.6      174     66.4     66.6     66.1       76     1013     0.00        0     13.3
    09/02/2015 02:45      1.4      192      2.6      207     66.3     66.5     66.2       75     1013     0.00        0     13.3
    09/02/2015 03:00      1.0      179      2.5      183     66.5     66.8     66.2       73     1013     0.00        0     13.3
    09/02/2015 03:15      0.9      156      2.2      131     66.8     67.0     66.5       72     1013     0.00        0     13.3
    09/02/2015 03:30      1.4      163      4.1      159     67.0     67.2     66.8       73     1013     0.00        0     13.3
    09/02/2015 03:45      1.7      157      3.6      155     67.0     67.2     66.8       73     1013     0.00        0     13.3
    09/02/2015 04:00      1.0      143      3.6      155     67.0     67.3     66.8       73     1013     0.00        0     13.3
    09/02/2015 04:15      1.1      128      2.5      148     67.2     67.5     67.0       71     1013     0.00        0     13.3
    09/02/2015 04:30      2.5      127      6.3      136     67.5     67.8     67.2       72     1013     0.00        0     13.3
    09/02/2015 04:45      2.9      141      6.0      158     67.1     67.5     66.8       74     1013     0.00        0     13.3
    09/02/2015 05:00      2.6      141      5.0      154     66.9     67.1     66.7       75     1013     0.00        0     13.3
    09/02/2015 05:15      2.7      138      6.1      177     66.8     66.9     66.5       75     1013     0.00        0     13.3
    09/02/2015 05:30      3.8      148      6.8      126     66.6     66.8     66.4       74     1013     0.00        0     13.3
    09/02/2015 05:45      2.7      142      4.6      124     66.5     66.8     66.3       73     1014     0.00        3     13.3
    09/02/2015 06:00      3.0      146      6.2      159     66.5     66.7     66.4       72     1014     0.00        9     13.3
    09/02/2015 06:15      3.1      159      5.5      167     66.5     66.7     66.3       72     1014     0.00       25     13.3
    09/02/2015 06:30      2.1      167      4.3      146     66.6     66.9     66.4       72     1014     0.00       31     13.3
    09/02/2015 06:45      1.9      171      4.7      164     66.8     67.0     66.4       71     1014     0.00       49     13.3
    09/02/2015 07:00      1.3      166      3.8      166     67.1     67.4     66.7       70     1014     0.00       79     13.3
    09/02/2015 07:15      1.6      205      3.9      164     67.5     67.8     67.2       69     1014     0.00       95     13.3
    09/02/2015 07:30      1.9      198      5.0      199     67.9     68.1     67.6       68     1014     0.00      127     13.3
    09/02/2015 07:45      1.7      228      4.6      198     68.1     68.6     67.7       66     1014     0.00      160     13.3
    09/02/2015 08:00      1.1      167      3.5      144     68.8     69.2     68.2       64     1014     0.00      196     13.3
    09/02/2015 08:15      1.5       94      4.4       86     69.5     70.1     68.9       61     1014     0.00      266     13.2
    09/02/2015 08:30      1.8       91      4.5       70     69.9     70.3     69.6       61     1014     0.00      258     13.2
    09/02/2015 08:45      1.7      154      5.7      156     71.6     72.6     70.0       57     1014     0.00      492     13.2
    09/02/2015 09:00      1.4      119      4.3       73     71.7     72.3     71.2       57     1014     0.00      303     13.2
    09/02/2015 09:15      1.3       87      5.5       57     72.0     73.5     70.9       55     1014     0.00      614     13.2
    09/02/2015 09:30      3.6      172      7.7      137     73.8     74.5     73.0       53     1014     0.00      760     13.2
    09/02/2015 09:45      4.2      157      8.4      161     74.3     75.1     73.1       53     1014     0.00      635     13.1
    09/02/2015 10:00      2.7      172      9.0      130     74.2     75.7     73.1       49     1014     0.00      745     13.1
    09/02/2015 10:15      2.0      127      6.3       85     74.8     75.5     74.2       48     1014     0.00      747     13.1
    09/02/2015 10:30      2.3      112      7.1      145     76.2     77.0     75.3       47     1013     0.00      797     13.1
    09/02/2015 10:45      3.1      125      8.7      142     76.6     77.1     76.3       44     1013     0.00      816     13.1
    09/02/2015 11:00      4.2      147      8.0      193     77.2     77.8     76.6       46     1013     0.00      871     13.1
    09/02/2015 11:15      3.4      120      9.1      171     77.7     78.2     77.0       44     1013     0.00      726     13.1
    09/02/2015 11:30      3.5      106      7.8       85     78.4     79.3     77.6       42     1013     0.00      875     13.1
    09/02/2015 11:45      3.4      151      9.2      162     78.9     79.6     78.3       38     1013     0.00      872     13.1
    09/02/2015 12:00      3.3      151      7.7      160     79.5     80.0     78.6       36     1013     0.00      868     13.1
    09/02/2015 12:15      4.6      157      9.5      163     80.7     81.3     79.7       35     1013     0.00      858     13.0
    09/02/2015 12:30      4.1      146      9.3      190     80.5     81.8     79.7       36     1012     0.00      855     13.0
    09/02/2015 12:45      3.3      103      7.1      135     80.9     81.8     80.2       36     1012     0.00      846     13.0
    09/02/2015 13:00      4.6      149     10.9      158     81.5     82.4     80.7       33     1012     0.00      855     13.0
    09/02/2015 13:15      3.7      107      9.1       83     82.3     83.3     81.3       35     1012     0.00      832     13.0
    09/02/2015 13:30      5.1      118     11.6      113     82.7     83.4     81.8       34     1012     0.00      814     13.0
    09/02/2015 13:45      4.4      120      9.8      147     82.3     83.3     81.7       34     1012     0.00      777     13.0
    09/02/2015 14:00      4.7      125     13.5      125     82.7     83.4     82.1       35     1011     0.00      740     13.0
    09/02/2015 14:15      4.4      151     11.6      167     82.6     83.6     82.0       32     1011     0.00      722     13.0
    09/02/2015 14:30      3.7      130      7.1       68     83.6     84.0     83.0       32     1011     0.00      685     13.0
    09/02/2015 14:45      4.9      135     10.0       92     82.9     83.4     82.3       31     1011     0.00      649     13.0
    09/02/2015 15:00      5.2      136     13.9      179     82.8     83.4     82.1       32     1011     0.00      611     13.0
    09/02/2015 15:15      5.7      147     11.4      146     82.5     83.3     82.0       31     1011     0.00      569     13.0
    09/02/2015 15:30      5.3      138     10.5      176     82.6     83.3     82.0       32     1011     0.00      524     13.0
    09/02/2015 15:45      5.9      139     11.7      141     82.2     83.0     81.8       26     1011     0.00      459     13.0
    09/02/2015 16:00      6.0      148     11.4      157     82.4     82.7     82.0       22     1011     0.00      432     13.0
    09/02/2015 16:15      6.3      158     11.4      176     81.7     82.4     81.0       22     1011     0.00      382     13.0
    09/02/2015 16:30      6.2      153     11.6      164     80.9     81.2     80.6       26     1010     0.00      332     13.0
    09/02/2015 16:45      6.3      155     11.1      170     80.4     81.1     79.8       25     1011     0.00      282     13.0
    09/02/2015 17:00      4.5      144      8.2      141     79.9     80.5     79.3       28     1010     0.00      230     13.1
    09/02/2015 17:15      3.9      129      9.3      117     79.3     79.6     78.9       30     1010     0.00      182     13.1
    09/02/2015 17:30      3.9      127      9.2      126     78.0     79.1     77.5       33     1010     0.00      132     13.1
    09/02/2015 17:45      3.4      125      8.2      103     77.1     77.7     76.4       34     1010     0.00       86     13.1
    09/02/2015 18:00      4.5      137      9.6      139     75.8     76.6     75.1       38     1010     0.00       39     13.1
    09/02/2015 18:15      2.5      140      8.4      141     74.6     75.3     73.7       39     1010     0.00        8     13.1
    09/02/2015 18:30      2.4      142      5.1      154     73.5     73.8     73.2       40     1011     0.00        2     13.2
    09/02/2015 18:45      2.2      105      4.5       97     73.3     73.5     73.1       41     1011     0.00        0     13.2
    09/02/2015 19:00      1.8      105      4.0       97     73.0     73.4     72.6       43     1011     0.00        0     13.2
    09/02/2015 19:15      2.2       98      5.3       89     72.5     72.9     72.1       46     1011     0.00        0     13.2
    09/02/2015 19:30      2.2       93      5.4       90     72.0     72.4     71.5       50     1011     0.00        0     13.2
    09/02/2015 19:45      2.2       98      6.1       99     71.3     71.9     70.9       53     1011     0.00        0     13.3
    09/02/2015 20:00      2.0       93      6.3       92     70.7     71.1     70.3       55     1012     0.00        0     13.3
    09/02/2015 20:15      2.4       87      4.5       80     70.1     70.5     69.6       59     1012     0.00        0     13.3
    09/02/2015 20:30      2.0       96      5.0      121     69.3     69.7     68.7       62     1012     0.00        0     13.3
    09/02/2015 20:45      2.9       81      5.3       57     68.5     68.9     68.0       64     1012     0.00        0     13.3
    09/02/2015 21:00      3.3       83      6.6       81     67.8     68.3     67.3       68     1012     0.00        0     13.3
    09/02/2015 21:15      2.8       89      5.4       81     67.2     67.5     66.8       70     1012     0.00        0     13.3
    09/02/2015 21:30      3.3       87      6.4       91     66.7     67.0     66.2       72     1012     0.00        0     13.3
    09/02/2015 21:45      2.4       92      5.6       99     66.2     66.5     65.9       74     1012     0.00        0     13.3
    09/02/2015 22:00      1.1       97      4.6       98     65.7     66.2     65.4       76     1012     0.00        0     13.3
    09/02/2015 22:15      2.4       79      5.2       88     65.4     65.8     65.1       76     1012     0.00        0     13.3
    09/02/2015 22:30      2.3       83      4.8       58     65.3     65.5     65.1       75     1013     0.00        0     13.3
    09/02/2015 22:45      1.4      122      4.9      103     65.1     65.5     64.8       76     1013     0.00        0     13.3
    09/02/2015 23:00      0.5      121      2.4      161     64.7     65.0     64.4       76     1013     0.00        0     13.3
    09/02/2015 23:15      1.0      149      2.6      137     64.5     64.7     64.2       77     1013     0.00        0     13.3
    09/02/2015 23:30      1.5      153      3.3      146     64.7     65.1     64.4       76     1013     0.00        0     13.3
    09/02/2015 23:45      1.0      157      3.2      143     65.2     65.4     65.0       74     1013     0.00        0     13.3
    09/03/2015 00:00      0.9      143      2.9      117     65.5     65.8     65.1       72     1012     0.00        0     13.3
    09/03/2015 00:15      0.4      233      1.8      237     65.6     65.8     65.3       73     1012     0.00        0     13.3
    09/03/2015 00:30      0.6      124      2.5       87     65.6     65.8     65.4       74     1012     0.00        0     13.3
    09/03/2015 00:45      1.8      144      3.6      146     65.7     66.0     65.5       74     1012     0.00        0     13.3
    09/03/2015 01:00      2.6      154      4.8      154     65.6     65.8     65.4       75     1012     0.00        0     13.3
    09/03/2015 01:15      3.2      155      5.7      168     65.3     65.6     65.0       75     1012     0.00        0     13.3
    09/03/2015 01:30      3.1      158      5.0      143     65.2     65.3     64.9       75     1012     0.00        0     13.3
    09/03/2015 01:45      2.8      164      5.4      152     64.8     65.1     64.4       76     1012     0.00        0     13.3
    09/03/2015 02:00      2.1      152      3.8      171     64.5     64.7     64.2       76     1012     0.00        0     13.3
    09/03/2015 02:15      2.3      164      4.0      160     64.3     64.5     64.1       75     1012     0.00        0     13.3
    09/03/2015 02:30      2.6      186      4.7      207     64.4     64.5     64.2       75     1012     0.00        0     13.3
    09/03/2015 02:45      1.9      163      3.7      184     64.5     64.7     64.3       73     1012     0.00        0     13.3
    09/03/2015 03:00      0.9      187      2.5      204     64.4     64.7     64.2       74     1012     0.00        0     13.3
    09/03/2015 03:15      0.3      196      1.8      190     64.5     64.7     64.2       73     1012     0.00        0     13.3
    09/03/2015 03:30      1.8      194      3.2      175     64.6     64.8     64.3       73     1012     0.00        0     13.3
    09/03/2015 03:45      2.2      163      3.3      135     64.8     65.0     64.5       73     1012     0.00        0     13.3
    09/03/2015 04:00      1.5      173      2.8      116     64.7     65.0     64.3       73     1012     0.00        0     13.3
    09/03/2015 04:15      2.4      198      3.8      196     64.5     64.7     64.3       73     1012     0.00        0     13.3
    09/03/2015 04:30      2.4      187      3.8      155     64.5     64.7     64.3       72     1012     0.00        0     13.3
    09/03/2015 04:45      1.1      194      2.8      186     64.4     64.7     64.1       73     1012     0.00        0     13.3
    09/03/2015 05:00      1.0      125      2.5       93     64.5     64.8     64.2       73     1011     0.00        0     13.3
    09/03/2015 05:15      1.1      154      2.6      142     64.8     65.0     64.5       73     1011     0.00        0     13.3
    09/03/2015 05:30      0.8      144      2.0      142     64.7     64.8     64.5       72     1011     0.00        0     13.3
    09/03/2015 05:45      0.6      132      1.6      144     64.8     65.1     64.6       72     1011     0.00        4     13.3
    09/03/2015 06:00      0.7      160      1.7      156     65.0     65.2     64.8       72     1012     0.00        9     13.3
    09/03/2015 06:15      0.6      162      2.1      153     65.1     65.4     64.8       72     1012     0.00       23     13.3
    09/03/2015 06:30      0.5      120      2.5      122     65.3     65.7     65.0       71     1012     0.00       33     13.3
    09/03/2015 06:45      1.3      151      2.7      157     65.6     65.8     65.3       71     1012     0.00       40     13.3
    09/03/2015 07:00      1.7      146      4.0      171     65.8     66.1     65.6       71     1012     0.00       52     13.3
    09/03/2015 07:15      2.7      118      6.8      117     66.3     66.7     65.9       69     1012     0.00      102     13.3
    09/03/2015 07:30      2.9      115      7.3       65     66.8     67.0     66.5       68     1012     0.00      121     13.3
    09/03/2015 07:45      4.0      149      7.5      147     67.0     67.3     66.5       68     1012     0.00      139     13.3
    09/03/2015 08:00      3.4      145      8.2      140     67.2     67.7     66.6       66     1012     0.00      197     13.3
    09/03/2015 08:15      3.5      152      7.4      187     67.8     68.2     67.3       66     1012     0.00      236     13.3
    09/03/2015 08:30      3.6      129      6.8      115     67.8     68.4     67.2       63     1013     0.00      237     13.3
    09/03/2015 08:45      4.7      139      8.1      161     68.0     68.5     67.4       61     1013     0.00      239     13.2
    09/03/2015 09:00      4.5      146      8.9      157     68.4     68.7     68.1       61     1013     0.00      251     13.2
    09/03/2015 09:15      4.9      128     11.4      153     68.6     69.3     68.3       59     1013     0.00      330     13.2
    09/03/2015 09:30      4.6      136     10.6      148     69.6     70.0     69.1       57     1013     0.00      432     13.2
    09/03/2015 09:45      4.0      132      8.6      109     69.5     70.1     68.9       57     1013     0.00      332     13.2
    09/03/2015 10:00      4.7      134     10.0      121     70.7     71.9     69.8       55     1013     0.00      568     13.2
    09/03/2015 10:15      3.3      123      8.2      147     70.4     71.0     69.9       55     1013     0.00      442     13.2
    09/03/2015 10:30      3.4      139      9.2      134     71.0     71.4     70.5       54     1012     0.00      652     13.2
    09/03/2015 10:45      4.5      146      9.7      173     71.6     72.7     70.5       54     1012     0.00      818     13.2
    09/03/2015 11:00      3.6      162      8.3      158     71.9     73.2     70.6       49     1012     0.00      817     13.1
    09/03/2015 11:15      4.2      151      8.2      159     72.8     73.4     72.3       49     1012     0.00      839     13.1
    09/03/2015 11:30      4.5      128     14.2      127     73.8     74.5     73.3       47     1011     0.00      853     13.1
    09/03/2015 11:45      3.5      120      7.1      154     74.7     75.4     73.7       44     1011     0.00      855     13.1
    09/03/2015 12:00      3.7      147      8.2      110     75.6     76.3     74.7       43     1011     0.00      862     13.1
    09/03/2015 12:15      3.9      156     10.2      201     76.2     76.8     75.5       43     1011     0.00      859     13.1
    09/03/2015 12:30      4.4      115     12.4      164     76.3     77.4     75.5       39     1011     0.00      857     13.1
    09/03/2015 12:45      3.5      131     10.3       94     77.5     78.9     76.8       38     1010     0.00      850     13.1
    09/03/2015 13:00      5.3      114     11.4      211     78.0     78.7     77.3       40     1010     0.00      835     13.1
    09/03/2015 13:15      4.4      149     10.0      171     78.7     79.5     77.5       35     1010     0.00      820     13.1
    09/03/2015 13:30      5.4      156     13.0      197     78.8     79.9     78.3       38     1010     0.00      801     13.1
    09/03/2015 13:45      3.9      121      8.9      157     79.1     79.7     78.4       35     1010     0.00      781     13.0
    09/03/2015 14:00      4.9      147      9.9      132     78.9     79.6     77.7       37     1009     0.00      752     13.0
    09/03/2015 14:15      4.4      164      8.5      131     79.0     80.0     77.9       34     1009     0.00      721     13.0
    09/03/2015 14:30      4.5      124      8.2      130     79.7     80.3     79.2       33     1009     0.00      690     13.0
    09/03/2015 14:45      5.5      128     10.7      165     79.4     80.1     78.7       37     1009     0.00      652     13.0
    09/03/2015 15:00      4.1      127     11.9      154     78.9     79.4     78.4       34     1009     0.00      611     13.0
    09/03/2015 15:15      5.8      148     12.1      164     79.1     80.0     77.9       37     1009     0.00      568     13.0
    09/03/2015 15:30      5.1      145     10.0      151     78.3     78.7     77.8       39     1008     0.00      524     13.0
    09/03/2015 15:45      3.9      138      8.6      142     78.1     78.9     77.6       35     1008     0.00      458     13.0
    09/03/2015 16:00      4.1      133      9.3      162     78.6     79.2     78.1       36     1008     0.00      425     13.0
    09/03/2015 16:15      3.8      110      9.7       97     78.3     79.2     77.6       37     1008     0.00      372     13.0
    09/03/2015 16:30      4.7      135     10.5      156     77.5     78.1     76.6       39     1008     0.00      322     13.0
    09/03/2015 16:45      3.5      135      7.1      141     76.8     77.3     76.4       37     1008     0.00      272     13.1
    09/03/2015 17:00      3.3      114      7.9       85     76.7     77.0     76.2       39     1008     0.00      221     13.1
    09/03/2015 17:15      4.7      143      8.6      150     75.8     76.4     75.3       42     1008     0.00      172     13.1
    09/03/2015 17:30      3.5      139      7.5      149     75.1     75.7     74.5       43     1008     0.00      123     13.1
    09/03/2015 17:45      3.7      128      8.0      151     74.1     74.8     73.5       45     1008     0.00       80     13.1
    09/03/2015 18:00      3.6      128      7.8      130     72.9     73.6     72.4       48     1008     0.00       38     13.1
    09/03/2015 18:15      3.8      111      9.2      108     72.0     72.7     71.3       51     1008     0.00       11     13.2
    09/03/2015 18:30      3.2      114      8.0      144     70.9     71.5     70.2       54     1009     0.00        3     13.2
    09/03/2015 18:45      2.3      127      7.1      121     69.9     70.4     69.5       55     1009     0.00        0     13.2
    09/03/2015 19:00      2.7      141      6.0      156     69.3     69.8     68.9       56     1009     0.00        0     13.2
    09/03/2015 19:15      2.9      144      6.1      132     68.7     69.1     68.4       58     1009     0.00        0     13.3
    09/03/2015 19:30      3.2      145      5.2      164     68.2     68.6     67.9       60     1009     0.00        0     13.3
    09/03/2015 19:45      1.1      140      3.1      144     67.8     68.1     67.5       61     1009     0.00        0     13.3
    09/03/2015 20:00      1.5      118      3.7      142     67.7     67.8     67.5       61     1009     0.00        0     13.3
    09/03/2015 20:15      1.5      104      4.5       75     67.5     67.8     67.3       62     1010     0.00        0     13.3
    09/03/2015 20:30      1.1      106      3.1      123     67.3     67.7     67.0       63     1010     0.00        0     13.3
    09/03/2015 20:45      0.9      119      3.5       87     66.8     67.3     66.5       64     1010     0.00        0     13.3
    09/03/2015 21:00      1.0      114      3.6      105     66.6     66.8     66.4       64     1010     0.00        0     13.3
    09/03/2015 21:15      1.3      139      3.2      128     66.0     66.5     65.6       68     1010     0.00        0     13.3
    09/03/2015 21:30      0.9      127      2.1      150     65.7     65.9     65.6       67     1010     0.00        0     13.3
    09/03/2015 21:45      1.1      102      3.4       92     65.5     65.9     65.3       68     1010     0.00        0     13.3
    09/03/2015 22:00      1.8       87      3.8       59     65.6     65.9     65.5       67     1010     0.00        0     13.3
    09/03/2015 22:15      1.4       96      3.9       83     65.6     65.8     65.4       68     1010     0.00        0     13.3
    09/03/2015 22:30      1.5      100      4.0       91     66.0     66.3     65.6       67     1010     0.00        0     13.3
    09/03/2015 22:45      2.7       95      5.6       96     66.1     66.4     65.9       67     1010     0.00        0     13.3
    09/03/2015 23:00      1.8      123      4.8      145     65.9     66.2     65.6       68     1010     0.00        0     13.3
    09/03/2015 23:15      2.2      136      4.2      148     65.7     66.0     65.3       69     1010     0.00        0     13.3
    09/03/2015 23:30      2.7      146      5.0      152     65.4     65.8     65.0       70     1010     0.00        0     13.3
    09/03/2015 23:45      2.0      148      4.9      179     64.9     65.2     64.5       71     1010     0.00        0     13.3
    09/04/2015 00:00      0.9      140      2.5      179     64.7     65.0     64.5       71     1010     0.00        0     13.3
    09/04/2015 00:15      2.1      158      3.7      172     64.5     64.7     64.2       72     1010     0.00        0     13.3
    09/04/2015 00:30      1.9      155      3.3      145     64.3     64.5     64.1       72     1010     0.00        0     13.3
    09/04/2015 00:45      1.5      158      3.4      146     64.2     64.4     64.1       71     1010     0.00        0     13.3
    09/04/2015 01:00      2.7      156      4.7      159     64.4     64.7     64.2       71     1010     0.00        0     13.3
    09/04/2015 01:15      2.4      156      4.2      183     64.5     64.7     64.2       70     1010     0.00        0     13.3
    09/04/2015 01:30      2.4      155      4.9      153     64.4     64.7     64.2       70     1010     0.00        0     13.3
    09/04/2015 01:45      1.8      141      3.9      157     64.5     64.8     64.2       70     1010     0.00        0     13.3
    09/04/2015 02:00      2.1      136      3.8      137     64.6     64.8     64.3       69     1010     0.00        0     13.3
    09/04/2015 02:15      1.8      142      4.0      166     64.6     64.8     64.4       69     1010     0.00        0     13.3
    09/04/2015 02:30      1.2      115      4.1      121     64.7     65.0     64.5       68     1010     0.00        0     13.3
    09/04/2015 02:45      2.4       88      4.8      106     64.9     65.1     64.7       68     1010     0.00        0     13.3
    09/04/2015 03:00      3.1       92      5.6       91     65.0     65.2     64.8       68     1010     0.00        0     13.3
    09/04/2015 03:15      2.3       91      5.7       68     65.1     65.4     64.8       68     1010     0.00        0     13.3
    09/04/2015 03:30      1.7      101      5.2       97     65.1     65.3     64.9       69     1010     0.00        0     13.3
    09/04/2015 03:45      2.4       91      4.8      103     65.1     65.3     64.9       70     1010     0.00        0     13.3
    09/04/2015 04:00      3.0       80      5.8       84     65.0     65.1     64.8       70     1010     0.00        0     13.3
    09/04/2015 04:15      2.5       96      5.6       82     65.1     65.3     64.8       70     1010     0.00        0     13.3
    09/04/2015 04:30      3.2      107      7.3       94     65.0     65.3     64.6       71     1010     0.00        0     13.3
    09/04/2015 04:45      4.2       91      7.9       90     64.7     65.0     64.5       71     1010     0.00        0     13.3
    09/04/2015 05:00      3.0      105      7.3       72     64.7     65.0     64.5       71     1010     0.00        0     13.3
    09/04/2015 05:15      2.2       99      6.8       92     64.8     65.0     64.6       71     1010     0.00        0     13.3
    09/04/2015 05:30      2.2      103      6.2      122     64.9     65.1     64.7       70     1010     0.00        0     13.3
    09/04/2015 05:45      1.7      107      4.5       95     64.9     65.0     64.7       70     1010     0.00        4     13.3
    09/04/2015 06:00      2.1      104      5.7       90     64.9     65.1     64.7       69     1011     0.00       10     13.3
    09/04/2015 06:15      1.5       99      4.2       81     65.1     65.3     64.9       68     1011     0.00       17     13.3
    09/04/2015 06:30      2.1      107      6.0      160     65.2     65.5     65.0       64     1011     0.00       21     13.3
    09/04/2015 06:45      1.7      121      7.7      145     65.7     66.0     65.3       64     1011     0.00       22     13.3
    09/04/2015 07:00      3.3      163      6.2      143     65.3     65.7     65.0       66     1011     0.00       26     13.3
    09/04/2015 07:15      1.8      141      5.0      127     65.4     65.6     65.0       64     1011     0.00       52     13.3
    09/04/2015 07:30      2.5      140      5.7      133     65.8     66.1     65.4       63     1011     0.00       49     13.3
    09/04/2015 07:45      3.5      153      7.2      166     65.9     66.2     65.6       60     1011     0.00       91     13.3
    09/04/2015 08:00      4.2      148      7.7      166     66.3     66.5     66.1       58     1011     0.00      133     13.3
    09/04/2015 08:15      4.3      153      8.0      172     66.5     66.8     66.1       58     1011     0.00      152     13.3
    09/04/2015 08:30      4.4      147      7.9      156     66.8     67.1     66.5       57     1011     0.00      171     13.3
    09/04/2015 08:45      3.9      139      9.2      153     67.1     67.5     66.8       56     1011     0.00      186     13.3
    09/04/2015 09:00      3.5      138      8.0      165     67.5     68.0     67.2       56     1012     0.00      221     13.3
    09/04/2015 09:15      3.8      144      7.9      172     68.1     68.7     67.5       53     1012     0.00      304     13.3
    09/04/2015 09:30      4.1      148     10.9      129     69.2     69.8     68.5       51     1012     0.00      365     13.2
    09/04/2015 09:45      4.6      134     11.1      126     69.7     70.1     69.2       50     1012     0.00      370     13.2
    09/04/2015 10:00      4.9      121     11.4      173     70.2     71.0     69.6       50     1012     0.00      415     13.2
    09/04/2015 10:15      3.4      109      9.9      103     69.8     70.6     69.1       48     1012     0.00      419     13.2
    09/04/2015 10:30      5.1      162     12.2      166     70.5     71.0     70.0       49     1011     0.00      560     13.2
    09/04/2015 10:45      4.2      177      9.8      108     70.7     71.3     70.0       47     1011     0.00      472     13.2
    09/04/2015 11:00      2.9      154      9.0      181     71.8     73.4     70.5       45     1011     0.00      841     13.2
    09/04/2015 11:15      4.6      161      9.1      148     72.4     73.5     71.5       49     1011     0.00      756     13.1
    09/04/2015 11:30      3.5      112      9.3      129     72.9     74.2     71.7       43     1011     0.00      854     13.1
    09/04/2015 11:45      3.8      139      7.7      135     73.9     74.8     73.3       40     1011     0.00      846     13.1
    09/04/2015 12:00      3.1      169     11.9      106     74.8     75.9     73.8       39     1010     0.00      856     13.1
    09/04/2015 12:15      3.0      347      7.4       61     75.0     75.7     74.2       39     1010     0.00      850     13.1
    09/04/2015 12:30      3.4      159     11.0      135     75.5     76.5     74.7       38     1010     0.00      846     13.1
    09/04/2015 12:45      3.7      129      7.6      165     75.4     76.6     74.7       38     1010     0.00      835     13.1
    09/04/2015 13:00      3.9      186      8.9      199     76.7     77.4     75.9       36     1010     0.00      825     13.1